sensor_id;sensor_type;location;lat;lon;timestamp;temperature;humidity
53776;DHT22;44276;49.534;6.378;2023-04-28T00:01:01;11.30;99.90
53776;DHT22;44276;49.534;6.378;2023-04-28T00:03:30;11.30;99.90
53776;DHT22;44276;49.534;6.378;2023-04-28T00:05:58;11.30;99.90
53776;DHT22;44276;49.534;6.378;2023-04-28T00:08:26;11.30;99.90
53776;DHT22;44276;49.534;6.378;2023-04-28T00:10:54;11.20;99.90
53776;DHT22;44276;49.534;6.378;2023-04-28T00:13:23;11.20;99.90
53776;DHT22;44276;49.534;6.378;2023-04-28T00:15:52;11.20;99.90
53776;DHT22;44276;49.534;6.378;2023-04-28T00:18:21;11.30;99.90
53776;DHT22;44276;49.534;6.378;2023-04-28T00:20:49;11.30;99.90
53776;DHT22;44276;49.534;6.378;2023-04-28T00:23:17;11.30;99.90
53776;DHT22;44276;49.534;6.378;2023-04-28T00:25:50;11.30;99.90
53776;DHT22;44276;49.534;6.378;2023-04-28T00:28:19;11.30;99.90
53776;DHT22;44276;49.534;6.378;2023-04-28T00:31:01;11.30;99.90
53776;DHT22;44276;49.534;6.378;2023-04-28T00:33:36;11.30;99.90
53776;DHT22;44276;49.534;6.378;2023-04-28T00:36:05;11.30;99.90
53776;DHT22;44276;49.534;6.378;2023-04-28T00:38:34;11.40;99.90
53776;DHT22;44276;49.534;6.378;2023-04-28T00:41:03;11.30;99.90
53776;DHT22;44276;49.534;6.378;2023-04-28T00:43:31;11.30;99.90
53776;DHT22;44276;49.534;6.378;2023-04-28T00:46:16;11.30;99.90
53776;DHT22;44276;49.534;6.378;2023-04-28T00:48:49;11.30;99.90
53776;DHT22;44276;49.534;6.378;2023-04-28T00:51:17;11.30;99.90
53776;DHT22;44276;49.534;6.378;2023-04-28T00:53:45;11.30;99.90
53776;DHT22;44276;49.534;6.378;2023-04-28T00:56:14;11.40;99.90
53776;DHT22;44276;49.534;6.378;2023-04-28T00:58:42;11.40;99.90
53776;DHT22;44276;49.534;6.378;2023-04-28T01:01:12;11.40;99.90
53776;DHT22;44276;49.534;6.378;2023-04-28T01:03:40;11.40;99.90
53776;DHT22;44276;49.534;6.378;2023-04-28T01:06:09;11.40;99.90
53776;DHT22;44276;49.534;6.378;2023-04-28T01:08:37;11.40;99.90
53776;DHT22;44276;49.534;6.378;2023-04-28T01:11:06;11.40;99.90
53776;DHT22;44276;49.534;6.378;2023-04-28T01:13:36;11.50;99.90
53776;DHT22;44276;49.534;6.378;2023-04-28T01:16:04;11.40;99.90
53776;DHT22;44276;49.534;6.378;2023-04-28T01:18:35;11.40;99.90
53776;DHT22;44276;49.534;6.378;2023-04-28T01:21:03;11.40;99.90
53776;DHT22;44276;49.534;6.378;2023-04-28T01:23:31;11.50;99.90
53776;DHT22;44276;49.534;6.378;2023-04-28T01:26:01;11.50;99.90
53776;DHT22;44276;49.534;6.378;2023-04-28T01:28:29;11.70;99.90
53776;DHT22;44276;49.534;6.378;2023-04-28T01:30:57;11.70;99.90
53776;DHT22;44276;49.534;6.378;2023-04-28T01:33:25;11.70;99.90
53776;DHT22;44276;49.534;6.378;2023-04-28T01:35:56;11.80;99.90
53776;DHT22;44276;49.534;6.378;2023-04-28T01:38:25;11.90;99.90
53776;DHT22;44276;49.534;6.378;2023-04-28T01:40:53;11.80;99.90
53776;DHT22;44276;49.534;6.378;2023-04-28T01:43:23;11.80;99.90
53776;DHT22;44276;49.534;6.378;2023-04-28T01:45:51;11.80;99.90
53776;DHT22;44276;49.534;6.378;2023-04-28T01:48:20;11.80;99.90
53776;DHT22;44276;49.534;6.378;2023-04-28T01:50:48;11.90;99.90
53776;DHT22;44276;49.534;6.378;2023-04-28T01:53:16;11.90;99.90
53776;DHT22;44276;49.534;6.378;2023-04-28T01:55:46;11.90;99.90
53776;DHT22;44276;49.534;6.378;2023-04-28T01:58:14;11.90;99.90
53776;DHT22;44276;49.534;6.378;2023-04-28T02:00:44;11.90;99.90
53776;DHT22;44276;49.534;6.378;2023-04-28T02:03:13;11.80;99.90
53776;DHT22;44276;49.534;6.378;2023-04-28T02:05:42;11.90;99.90
53776;DHT22;44276;49.534;6.378;2023-04-28T02:08:10;11.90;99.90
53776;DHT22;44276;49.534;6.378;2023-04-28T02:10:38;11.90;99.90
53776;DHT22;44276;49.534;6.378;2023-04-28T02:13:06;11.90;99.90
53776;DHT22;44276;49.534;6.378;2023-04-28T02:15:38;11.90;99.90
53776;DHT22;44276;49.534;6.378;2023-04-28T02:18:08;11.90;99.90
53776;DHT22;44276;49.534;6.378;2023-04-28T02:20:37;11.90;99.90
53776;DHT22;44276;49.534;6.378;2023-04-28T02:23:05;11.90;99.90
53776;DHT22;44276;49.534;6.378;2023-04-28T02:25:33;11.90;99.90
53776;DHT22;44276;49.534;6.378;2023-04-28T02:28:01;11.90;99.90
53776;DHT22;44276;49.534;6.378;2023-04-28T02:30:29;11.90;99.90
53776;DHT22;44276;49.534;6.378;2023-04-28T02:32:58;11.90;99.90
53776;DHT22;44276;49.534;6.378;2023-04-28T02:35:27;11.90;99.90
53776;DHT22;44276;49.534;6.378;2023-04-28T02:37:55;11.90;99.90
53776;DHT22;44276;49.534;6.378;2023-04-28T02:40:23;11.80;99.90
53776;DHT22;44276;49.534;6.378;2023-04-28T02:42:51;11.80;99.90
53776;DHT22;44276;49.534;6.378;2023-04-28T02:45:19;11.80;99.90
53776;DHT22;44276;49.534;6.378;2023-04-28T02:47:47;11.90;99.90
53776;DHT22;44276;49.534;6.378;2023-04-28T02:50:16;11.90;99.90
53776;DHT22;44276;49.534;6.378;2023-04-28T02:52:46;11.90;99.90
53776;DHT22;44276;49.534;6.378;2023-04-28T02:55:15;11.90;99.90
53776;DHT22;44276;49.534;6.378;2023-04-28T02:57:50;11.90;99.90
53776;DHT22;44276;49.534;6.378;2023-04-28T03:00:18;11.90;99.90
53776;DHT22;44276;49.534;6.378;2023-04-28T03:02:46;12.00;99.90
53776;DHT22;44276;49.534;6.378;2023-04-28T03:05:15;12.10;99.90
53776;DHT22;44276;49.534;6.378;2023-04-28T03:07:43;12.20;99.90
53776;DHT22;44276;49.534;6.378;2023-04-28T03:10:13;12.40;99.90
53776;DHT22;44276;49.534;6.378;2023-04-28T03:12:41;12.50;99.90
53776;DHT22;44276;49.534;6.378;2023-04-28T03:15:10;12.50;99.90
53776;DHT22;44276;49.534;6.378;2023-04-28T03:17:39;12.50;99.90
53776;DHT22;44276;49.534;6.378;2023-04-28T03:20:10;12.50;99.90
53776;DHT22;44276;49.534;6.378;2023-04-28T03:22:38;12.40;99.90
53776;DHT22;44276;49.534;6.378;2023-04-28T03:25:07;12.40;99.90
53776;DHT22;44276;49.534;6.378;2023-04-28T03:27:37;12.40;99.90
53776;DHT22;44276;49.534;6.378;2023-04-28T03:30:06;12.40;99.90
53776;DHT22;44276;49.534;6.378;2023-04-28T03:32:35;12.40;99.90
53776;DHT22;44276;49.534;6.378;2023-04-28T03:35:04;12.30;99.90
53776;DHT22;44276;49.534;6.378;2023-04-28T03:37:33;12.30;99.90
53776;DHT22;44276;49.534;6.378;2023-04-28T03:40:01;12.30;99.90
53776;DHT22;44276;49.534;6.378;2023-04-28T03:42:29;12.20;99.90
53776;DHT22;44276;49.534;6.378;2023-04-28T03:44:58;12.20;99.90
53776;DHT22;44276;49.534;6.378;2023-04-28T03:47:27;12.20;99.90
53776;DHT22;44276;49.534;6.378;2023-04-28T03:49:55;12.20;99.90
53776;DHT22;44276;49.534;6.378;2023-04-28T03:52:24;12.10;99.90
53776;DHT22;44276;49.534;6.378;2023-04-28T03:54:53;12.10;99.90
53776;DHT22;44276;49.534;6.378;2023-04-28T03:57:21;12.10;99.90
53776;DHT22;44276;49.534;6.378;2023-04-28T03:59:49;12.10;99.90
53776;DHT22;44276;49.534;6.378;2023-04-28T04:02:19;12.10;99.90
53776;DHT22;44276;49.534;6.378;2023-04-28T04:04:47;12.10;99.90
53776;DHT22;44276;49.534;6.378;2023-04-28T04:07:16;12.10;99.90
53776;DHT22;44276;49.534;6.378;2023-04-28T04:09:44;12.10;99.90
53776;DHT22;44276;49.534;6.378;2023-04-28T04:12:12;12.10;99.90
53776;DHT22;44276;49.534;6.378;2023-04-28T04:14:40;12.10;99.90
53776;DHT22;44276;49.534;6.378;2023-04-28T04:17:09;12.00;99.90
53776;DHT22;44276;49.534;6.378;2023-04-28T04:19:38;12.00;99.90
53776;DHT22;44276;49.534;6.378;2023-04-28T04:22:07;12.00;99.90
53776;DHT22;44276;49.534;6.378;2023-04-28T04:24:35;12.00;99.90
53776;DHT22;44276;49.534;6.378;2023-04-28T04:27:03;12.00;99.90
53776;DHT22;44276;49.534;6.378;2023-04-28T04:29:31;12.00;99.90
53776;DHT22;44276;49.534;6.378;2023-04-28T04:31:59;12.00;99.90
53776;DHT22;44276;49.534;6.378;2023-04-28T04:34:27;12.00;99.90
53776;DHT22;44276;49.534;6.378;2023-04-28T04:36:57;12.10;99.90
53776;DHT22;44276;49.534;6.378;2023-04-28T04:39:25;12.10;99.90
53776;DHT22;44276;49.534;6.378;2023-04-28T04:41:53;12.10;99.90
53776;DHT22;44276;49.534;6.378;2023-04-28T04:44:21;12.10;99.90
53776;DHT22;44276;49.534;6.378;2023-04-28T04:46:49;12.20;99.90
53776;DHT22;44276;49.534;6.378;2023-04-28T04:49:17;12.20;99.90
53776;DHT22;44276;49.534;6.378;2023-04-28T04:51:47;12.20;99.90
53776;DHT22;44276;49.534;6.378;2023-04-28T04:54:17;12.30;99.90
53776;DHT22;44276;49.534;6.378;2023-04-28T04:56:45;12.30;99.90
53776;DHT22;44276;49.534;6.378;2023-04-28T04:59:13;12.30;99.90
53776;DHT22;44276;49.534;6.378;2023-04-28T05:01:41;12.40;99.90
53776;DHT22;44276;49.534;6.378;2023-04-28T05:04:09;12.40;99.90
53776;DHT22;44276;49.534;6.378;2023-04-28T05:06:37;12.40;99.90
53776;DHT22;44276;49.534;6.378;2023-04-28T05:09:06;12.50;99.90
53776;DHT22;44276;49.534;6.378;2023-04-28T05:11:36;12.50;99.90
53776;DHT22;44276;49.534;6.378;2023-04-28T05:14:04;12.60;99.90
53776;DHT22;44276;49.534;6.378;2023-04-28T05:16:32;12.50;99.90
53776;DHT22;44276;49.534;6.378;2023-04-28T05:19:00;12.70;99.90
53776;DHT22;44276;49.534;6.378;2023-04-28T05:21:28;12.70;99.90
53776;DHT22;44276;49.534;6.378;2023-04-28T05:23:58;12.70;99.90
53776;DHT22;44276;49.534;6.378;2023-04-28T05:26:26;12.80;99.90
53776;DHT22;44276;49.534;6.378;2023-04-28T05:28:56;12.80;99.90
53776;DHT22;44276;49.534;6.378;2023-04-28T05:31:24;12.90;99.90
53776;DHT22;44276;49.534;6.378;2023-04-28T05:33:52;12.90;99.90
53776;DHT22;44276;49.534;6.378;2023-04-28T05:36:20;13.00;99.90
53776;DHT22;44276;49.534;6.378;2023-04-28T05:38:49;13.00;99.90
53776;DHT22;44276;49.534;6.378;2023-04-28T05:41:17;13.00;99.90
53776;DHT22;44276;49.534;6.378;2023-04-28T05:43:45;13.00;99.90
53776;DHT22;44276;49.534;6.378;2023-04-28T05:46:18;13.10;99.90
53776;DHT22;44276;49.534;6.378;2023-04-28T05:48:56;13.10;99.90
53776;DHT22;44276;49.534;6.378;2023-04-28T05:51:24;13.10;99.90
53776;DHT22;44276;49.534;6.378;2023-04-28T05:53:52;13.20;99.90
53776;DHT22;44276;49.534;6.378;2023-04-28T05:56:20;13.20;99.90
53776;DHT22;44276;49.534;6.378;2023-04-28T05:58:49;13.20;99.90
53776;DHT22;44276;49.534;6.378;2023-04-28T06:01:18;13.30;99.90
53776;DHT22;44276;49.534;6.378;2023-04-28T06:03:48;13.30;99.90
53776;DHT22;44276;49.534;6.378;2023-04-28T06:06:16;13.40;99.90
53776;DHT22;44276;49.534;6.378;2023-04-28T06:08:45;13.50;99.90
53776;DHT22;44276;49.534;6.378;2023-04-28T06:11:13;13.50;99.90
53776;DHT22;44276;49.534;6.378;2023-04-28T06:13:41;13.50;99.90
53776;DHT22;44276;49.534;6.378;2023-04-28T06:16:09;13.60;99.90
53776;DHT22;44276;49.534;6.378;2023-04-28T06:18:39;13.60;99.90
53776;DHT22;44276;49.534;6.378;2023-04-28T06:21:07;13.70;99.90
53776;DHT22;44276;49.534;6.378;2023-04-28T06:23:35;13.70;99.90
53776;DHT22;44276;49.534;6.378;2023-04-28T06:26:04;13.80;99.90
53776;DHT22;44276;49.534;6.378;2023-04-28T06:28:32;13.80;99.90
53776;DHT22;44276;49.534;6.378;2023-04-28T06:31:00;13.80;99.90
53776;DHT22;44276;49.534;6.378;2023-04-28T06:33:28;13.80;99.90
53776;DHT22;44276;49.534;6.378;2023-04-28T06:35:58;13.90;99.90
53776;DHT22;44276;49.534;6.378;2023-04-28T06:38:26;14.00;99.90
53776;DHT22;44276;49.534;6.378;2023-04-28T06:40:55;14.00;99.90
53776;DHT22;44276;49.534;6.378;2023-04-28T06:43:23;14.10;99.90
53776;DHT22;44276;49.534;6.378;2023-04-28T06:45:51;14.10;99.90
53776;DHT22;44276;49.534;6.378;2023-04-28T06:48:19;14.10;99.90
53776;DHT22;44276;49.534;6.378;2023-04-28T06:50:47;14.20;99.90
53776;DHT22;44276;49.534;6.378;2023-04-28T06:53:16;14.20;99.90
53776;DHT22;44276;49.534;6.378;2023-04-28T06:55:45;14.30;99.90
53776;DHT22;44276;49.534;6.378;2023-04-28T06:58:13;14.40;99.90
53776;DHT22;44276;49.534;6.378;2023-04-28T07:00:42;14.60;99.90
53776;DHT22;44276;49.534;6.378;2023-04-28T07:03:11;14.70;99.90
53776;DHT22;44276;49.534;6.378;2023-04-28T07:05:40;14.80;99.90
53776;DHT22;44276;49.534;6.378;2023-04-28T07:08:08;14.90;99.90
53776;DHT22;44276;49.534;6.378;2023-04-28T07:10:38;15.10;99.90
53776;DHT22;44276;49.534;6.378;2023-04-28T07:13:06;15.30;99.90
53776;DHT22;44276;49.534;6.378;2023-04-28T07:15:34;15.40;99.90
53776;DHT22;44276;49.534;6.378;2023-04-28T07:18:02;15.50;99.90
53776;DHT22;44276;49.534;6.378;2023-04-28T07:20:31;15.60;99.90
53776;DHT22;44276;49.534;6.378;2023-04-28T07:22:59;15.60;99.90
53776;DHT22;44276;49.534;6.378;2023-04-28T07:25:27;15.60;99.90
53776;DHT22;44276;49.534;6.378;2023-04-28T07:27:56;15.80;99.90
53776;DHT22;44276;49.534;6.378;2023-04-28T07:30:24;15.90;99.90
53776;DHT22;44276;49.534;6.378;2023-04-28T07:32:54;15.90;99.90
53776;DHT22;44276;49.534;6.378;2023-04-28T07:35:22;15.90;99.90
53776;DHT22;44276;49.534;6.378;2023-04-28T07:37:51;15.90;99.90
53776;DHT22;44276;49.534;6.378;2023-04-28T07:40:20;15.90;99.90
53776;DHT22;44276;49.534;6.378;2023-04-28T07:42:49;15.90;99.90
53776;DHT22;44276;49.534;6.378;2023-04-28T07:45:18;16.00;99.90
53776;DHT22;44276;49.534;6.378;2023-04-28T07:47:46;16.10;99.90
53776;DHT22;44276;49.534;6.378;2023-04-28T07:50:15;16.20;99.90
53776;DHT22;44276;49.534;6.378;2023-04-28T07:52:43;16.40;99.90
53776;DHT22;44276;49.534;6.378;2023-04-28T07:55:11;16.50;99.90
53776;DHT22;44276;49.534;6.378;2023-04-28T07:57:39;16.50;99.90
53776;DHT22;44276;49.534;6.378;2023-04-28T08:00:08;16.60;99.90
53776;DHT22;44276;49.534;6.378;2023-04-28T08:02:39;16.90;99.90
53776;DHT22;44276;49.534;6.378;2023-04-28T08:05:08;17.20;99.90
53776;DHT22;44276;49.534;6.378;2023-04-28T08:07:37;17.30;99.90
53776;DHT22;44276;49.534;6.378;2023-04-28T08:10:07;17.30;99.90
53776;DHT22;44276;49.534;6.378;2023-04-28T08:12:36;17.10;99.90
53776;DHT22;44276;49.534;6.378;2023-04-28T08:15:08;16.70;99.90
53776;DHT22;44276;49.534;6.378;2023-04-28T08:17:36;16.50;99.90
53776;DHT22;44276;49.534;6.378;2023-04-28T08:20:07;16.30;99.90
53776;DHT22;44276;49.534;6.378;2023-04-28T08:22:36;16.20;99.90
53776;DHT22;44276;49.534;6.378;2023-04-28T08:25:05;16.10;99.90
53776;DHT22;44276;49.534;6.378;2023-04-28T08:27:35;16.00;99.90
53776;DHT22;44276;49.534;6.378;2023-04-28T08:30:06;15.90;99.90
53776;DHT22;44276;49.534;6.378;2023-04-28T08:32:35;15.80;99.90
53776;DHT22;44276;49.534;6.378;2023-04-28T08:35:06;15.80;99.90
53776;DHT22;44276;49.534;6.378;2023-04-28T08:37:35;15.90;99.90
53776;DHT22;44276;49.534;6.378;2023-04-28T08:40:04;16.10;99.90
53776;DHT22;44276;49.534;6.378;2023-04-28T08:42:36;16.30;99.90
53776;DHT22;44276;49.534;6.378;2023-04-28T08:45:06;16.40;99.90
53776;DHT22;44276;49.534;6.378;2023-04-28T08:47:37;16.40;99.90
53776;DHT22;44276;49.534;6.378;2023-04-28T08:50:09;16.50;99.90
53776;DHT22;44276;49.534;6.378;2023-04-28T08:52:38;16.60;99.90
53776;DHT22;44276;49.534;6.378;2023-04-28T08:55:09;16.60;99.90
53776;DHT22;44276;49.534;6.378;2023-04-28T08:57:42;16.70;99.90
53776;DHT22;44276;49.534;6.378;2023-04-28T09:00:12;16.70;99.90
53776;DHT22;44276;49.534;6.378;2023-04-28T09:02:40;16.60;99.90
53776;DHT22;44276;49.534;6.378;2023-04-28T09:05:14;16.80;99.90
53776;DHT22;44276;49.534;6.378;2023-04-28T09:07:45;17.00;99.90
53776;DHT22;44276;49.534;6.378;2023-04-28T09:10:18;17.30;99.90
53776;DHT22;44276;49.534;6.378;2023-04-28T09:12:51;17.70;99.90
53776;DHT22;44276;49.534;6.378;2023-04-28T09:15:28;17.80;99.90
53776;DHT22;44276;49.534;6.378;2023-04-28T09:18:00;17.80;99.90
53776;DHT22;44276;49.534;6.378;2023-04-28T09:20:31;17.80;99.90
53776;DHT22;44276;49.534;6.378;2023-04-28T09:23:16;17.50;99.90
53776;DHT22;44276;49.534;6.378;2023-04-28T09:26:01;17.10;99.90
53776;DHT22;44276;49.534;6.378;2023-04-28T09:28:31;17.10;99.90
53776;DHT22;44276;49.534;6.378;2023-04-28T09:31:00;17.30;99.90
53776;DHT22;44276;49.534;6.378;2023-04-28T09:33:28;17.20;99.90
53776;DHT22;44276;49.534;6.378;2023-04-28T09:35:58;17.20;99.90
53776;DHT22;44276;49.534;6.378;2023-04-28T09:38:26;17.30;99.90
53776;DHT22;44276;49.534;6.378;2023-04-28T09:40:56;17.40;99.90
53776;DHT22;44276;49.534;6.378;2023-04-28T09:43:28;17.50;99.90
53776;DHT22;44276;49.534;6.378;2023-04-28T09:45:59;17.40;99.90
53776;DHT22;44276;49.534;6.378;2023-04-28T09:48:30;17.40;99.90
53776;DHT22;44276;49.534;6.378;2023-04-28T09:51:03;17.30;99.90
53776;DHT22;44276;49.534;6.378;2023-04-28T09:53:36;17.30;99.90
53776;DHT22;44276;49.534;6.378;2023-04-28T09:56:05;17.40;99.90
53776;DHT22;44276;49.534;6.378;2023-04-28T09:58:37;17.60;99.90
53776;DHT22;44276;49.534;6.378;2023-04-28T10:01:08;17.90;99.90
53776;DHT22;44276;49.534;6.378;2023-04-28T10:03:38;18.20;99.90
53776;DHT22;44276;49.534;6.378;2023-04-28T10:06:08;18.30;99.90
53776;DHT22;44276;49.534;6.378;2023-04-28T10:08:37;18.30;99.90
53776;DHT22;44276;49.534;6.378;2023-04-28T10:11:06;18.30;99.90
53776;DHT22;44276;49.534;6.378;2023-04-28T10:13:35;17.80;99.90
53776;DHT22;44276;49.534;6.378;2023-04-28T10:16:06;17.60;99.90
53776;DHT22;44276;49.534;6.378;2023-04-28T10:18:35;17.40;99.90
53776;DHT22;44276;49.534;6.378;2023-04-28T10:21:05;17.00;99.90
53776;DHT22;44276;49.534;6.378;2023-04-28T10:23:58;16.70;99.90
53776;DHT22;44276;49.534;6.378;2023-04-28T10:27:04;16.80;99.90
53776;DHT22;44276;49.534;6.378;2023-04-28T10:29:35;17.30;99.90
53776;DHT22;44276;49.534;6.378;2023-04-28T10:32:18;18.10;99.90
53776;DHT22;44276;49.534;6.378;2023-04-28T10:34:49;19.00;99.90
53776;DHT22;44276;49.534;6.378;2023-04-28T10:37:18;20.00;99.90
53776;DHT22;44276;49.534;6.378;2023-04-28T10:40:31;20.60;99.90
53776;DHT22;44276;49.534;6.378;2023-04-28T10:43:00;21.20;99.70
53776;DHT22;44276;49.534;6.378;2023-04-28T10:46:01;21.30;99.90
53776;DHT22;44276;49.534;6.378;2023-04-28T10:48:55;21.10;99.90
53776;DHT22;44276;49.534;6.378;2023-04-28T10:51:27;21.10;99.90
53776;DHT22;44276;49.534;6.378;2023-04-28T10:54:24;21.00;99.90
53776;DHT22;44276;49.534;6.378;2023-04-28T10:57:15;20.90;99.90
53776;DHT22;44276;49.534;6.378;2023-04-28T10:59:50;21.20;95.70
53776;DHT22;44276;49.534;6.378;2023-04-28T11:02:40;20.80;93.60
53776;DHT22;44276;49.534;6.378;2023-04-28T11:05:12;20.30;99.90
53776;DHT22;44276;49.534;6.378;2023-04-28T11:11:27;19.90;99.90
53776;DHT22;44276;49.534;6.378;2023-04-28T11:14:31;19.10;99.90
53776;DHT22;44276;49.534;6.378;2023-04-28T11:17:01;18.90;99.90
53776;DHT22;44276;49.534;6.378;2023-04-28T11:19:32;19.20;99.90
53776;DHT22;44276;49.534;6.378;2023-04-28T11:22:03;20.50;98.70
53776;DHT22;44276;49.534;6.378;2023-04-28T11:24:37;21.30;84.00
53776;DHT22;44276;49.534;6.378;2023-04-28T11:27:05;22.40;67.30
53776;DHT22;44276;49.534;6.378;2023-04-28T11:29:36;23.40;48.30
53776;DHT22;44276;49.534;6.378;2023-04-28T11:32:08;23.10;47.20
53776;DHT22;44276;49.534;6.378;2023-04-28T11:34:37;23.20;49.70
53776;DHT22;44276;49.534;6.378;2023-04-28T11:37:05;22.60;49.20
53776;DHT22;44276;49.534;6.378;2023-04-28T11:39:34;21.70;56.30
53776;DHT22;44276;49.534;6.378;2023-04-28T11:42:09;21.30;61.90
53776;DHT22;44276;49.534;6.378;2023-04-28T11:44:38;21.10;63.60
53776;DHT22;44276;49.534;6.378;2023-04-28T11:47:07;20.90;65.30
53776;DHT22;44276;49.534;6.378;2023-04-28T11:49:41;21.00;65.30
53776;DHT22;44276;49.534;6.378;2023-04-28T11:52:12;21.00;66.10
53776;DHT22;44276;49.534;6.378;2023-04-28T11:54:40;20.50;76.50
53776;DHT22;44276;49.534;6.378;2023-04-28T11:57:16;20.00;99.90
53776;DHT22;44276;49.534;6.378;2023-04-28T11:59:47;19.00;99.90
53776;DHT22;44276;49.534;6.378;2023-04-28T12:02:23;18.40;99.90
53776;DHT22;44276;49.534;6.378;2023-04-28T12:04:55;19.50;99.90
53776;DHT22;44276;49.534;6.378;2023-04-28T12:07:40;21.00;96.60
53776;DHT22;44276;49.534;6.378;2023-04-28T12:10:11;21.80;81.60
53776;DHT22;44276;49.534;6.378;2023-04-28T12:12:43;21.80;75.70
53776;DHT22;44276;49.534;6.378;2023-04-28T12:15:20;21.60;68.90
53776;DHT22;44276;49.534;6.378;2023-04-28T12:17:50;21.40;65.90
53776;DHT22;44276;49.534;6.378;2023-04-28T12:20:33;21.40;68.90
53776;DHT22;44276;49.534;6.378;2023-04-28T12:23:03;21.50;72.30
53776;DHT22;44276;49.534;6.378;2023-04-28T12:25:31;21.70;66.60
53776;DHT22;44276;49.534;6.378;2023-04-28T12:28:02;22.20;72.50
53776;DHT22;44276;49.534;6.378;2023-04-28T12:30:34;23.10;58.10
53776;DHT22;44276;49.534;6.378;2023-04-28T12:33:04;23.80;49.10
53776;DHT22;44276;49.534;6.378;2023-04-28T12:35:33;23.40;45.70
53776;DHT22;44276;49.534;6.378;2023-04-28T12:38:01;22.80;47.10
53776;DHT22;44276;49.534;6.378;2023-04-28T12:40:29;22.30;54.60
53776;DHT22;44276;49.534;6.378;2023-04-28T12:42:58;21.70;63.10
53776;DHT22;44276;49.534;6.378;2023-04-28T12:45:27;21.40;66.20
53776;DHT22;44276;49.534;6.378;2023-04-28T12:47:57;21.20;60.50
53776;DHT22;44276;49.534;6.378;2023-04-28T12:50:26;20.90;60.60
53776;DHT22;44276;49.534;6.378;2023-04-28T12:52:58;20.40;75.20
53776;DHT22;44276;49.534;6.378;2023-04-28T12:55:28;19.90;87.60
53776;DHT22;44276;49.534;6.378;2023-04-28T12:57:56;19.60;99.90
53776;DHT22;44276;49.534;6.378;2023-04-28T13:00:25;18.70;99.90
53776;DHT22;44276;49.534;6.378;2023-04-28T13:02:53;18.00;99.90
53776;DHT22;44276;49.534;6.378;2023-04-28T13:05:23;17.60;99.90
53776;DHT22;44276;49.534;6.378;2023-04-28T13:07:52;17.60;99.90
53776;DHT22;44276;49.534;6.378;2023-04-28T13:10:20;17.80;99.90
53776;DHT22;44276;49.534;6.378;2023-04-28T13:12:49;18.00;99.90
53776;DHT22;44276;49.534;6.378;2023-04-28T13:15:17;18.00;99.90
53776;DHT22;44276;49.534;6.378;2023-04-28T13:17:47;18.20;99.90
53776;DHT22;44276;49.534;6.378;2023-04-28T13:20:15;18.60;99.90
53776;DHT22;44276;49.534;6.378;2023-04-28T13:22:45;19.00;99.90
53776;DHT22;44276;49.534;6.378;2023-04-28T13:25:14;19.20;99.90
53776;DHT22;44276;49.534;6.378;2023-04-28T13:27:42;19.50;99.90
53776;DHT22;44276;49.534;6.378;2023-04-28T13:30:11;19.70;99.90
53776;DHT22;44276;49.534;6.378;2023-04-28T13:32:40;20.10;99.90
53776;DHT22;44276;49.534;6.378;2023-04-28T13:35:08;20.50;99.90
53776;DHT22;44276;49.534;6.378;2023-04-28T13:37:36;20.80;99.50
53776;DHT22;44276;49.534;6.378;2023-04-28T13:40:10;20.80;95.70
53776;DHT22;44276;49.534;6.378;2023-04-28T13:42:39;20.60;96.20
53776;DHT22;44276;49.534;6.378;2023-04-28T13:45:07;20.30;99.90
53776;DHT22;44276;49.534;6.378;2023-04-28T13:47:36;20.00;99.90
53776;DHT22;44276;49.534;6.378;2023-04-28T13:50:05;20.20;99.90
53776;DHT22;44276;49.534;6.378;2023-04-28T13:52:34;20.60;99.90
53776;DHT22;44276;49.534;6.378;2023-04-28T13:55:02;21.30;89.30
53776;DHT22;44276;49.534;6.378;2023-04-28T13:57:33;22.30;73.00
53776;DHT22;44276;49.534;6.378;2023-04-28T14:00:01;23.30;58.60
53776;DHT22;44276;49.534;6.378;2023-04-28T14:02:30;23.60;50.00
53776;DHT22;44276;49.534;6.378;2023-04-28T14:04:59;23.70;50.80
53776;DHT22;44276;49.534;6.378;2023-04-28T14:07:28;23.70;52.60
53776;DHT22;44276;49.534;6.378;2023-04-28T14:09:56;23.80;46.90
53776;DHT22;44276;49.534;6.378;2023-04-28T14:12:24;23.20;54.40
53776;DHT22;44276;49.534;6.378;2023-04-28T14:14:54;23.40;55.90
53776;DHT22;44276;49.534;6.378;2023-04-28T14:17:22;23.10;53.50
53776;DHT22;44276;49.534;6.378;2023-04-28T14:19:51;23.40;56.20
53776;DHT22;44276;49.534;6.378;2023-04-28T14:22:19;23.70;51.10
53776;DHT22;44276;49.534;6.378;2023-04-28T14:24:47;24.00;47.40
53776;DHT22;44276;49.534;6.378;2023-04-28T14:27:15;24.20;45.30
53776;DHT22;44276;49.534;6.378;2023-04-28T14:29:44;23.30;40.50
53776;DHT22;44276;49.534;6.378;2023-04-28T14:32:15;23.10;49.00
53776;DHT22;44276;49.534;6.378;2023-04-28T14:34:46;23.70;43.30
53776;DHT22;44276;49.534;6.378;2023-04-28T14:37:16;24.70;41.50
53776;DHT22;44276;49.534;6.378;2023-04-28T14:39:44;25.20;34.10
53776;DHT22;44276;49.534;6.378;2023-04-28T14:42:12;24.30;37.10
53776;DHT22;44276;49.534;6.378;2023-04-28T14:44:40;24.30;40.10
53776;DHT22;44276;49.534;6.378;2023-04-28T14:47:09;24.00;37.80
53776;DHT22;44276;49.534;6.378;2023-04-28T14:49:39;23.60;35.80
53776;DHT22;44276;49.534;6.378;2023-04-28T14:52:08;23.50;37.30
53776;DHT22;44276;49.534;6.378;2023-04-28T14:54:36;23.50;38.80
53776;DHT22;44276;49.534;6.378;2023-04-28T14:57:04;23.80;35.00
53776;DHT22;44276;49.534;6.378;2023-04-28T14:59:33;24.10;32.70
53776;DHT22;44276;49.534;6.378;2023-04-28T15:02:02;24.40;35.10
53776;DHT22;44276;49.534;6.378;2023-04-28T15:04:31;24.40;33.70
53776;DHT22;44276;49.534;6.378;2023-04-28T15:07:01;24.40;33.10
53776;DHT22;44276;49.534;6.378;2023-04-28T15:09:29;24.10;34.50
53776;DHT22;44276;49.534;6.378;2023-04-28T15:11:57;24.00;34.70
53776;DHT22;44276;49.534;6.378;2023-04-28T15:14:25;24.00;33.30
53776;DHT22;44276;49.534;6.378;2023-04-28T15:16:54;24.00;32.00
53776;DHT22;44276;49.534;6.378;2023-04-28T15:19:22;24.00;34.80
53776;DHT22;44276;49.534;6.378;2023-04-28T15:21:51;24.00;30.70
53776;DHT22;44276;49.534;6.378;2023-04-28T15:24:20;23.80;31.80
53776;DHT22;44276;49.534;6.378;2023-04-28T15:26:49;23.70;31.70
53776;DHT22;44276;49.534;6.378;2023-04-28T15:29:17;23.80;32.70
53776;DHT22;44276;49.534;6.378;2023-04-28T15:31:45;23.90;30.50
53776;DHT22;44276;49.534;6.378;2023-04-28T15:34:14;23.70;31.40
53776;DHT22;44276;49.534;6.378;2023-04-28T15:36:42;23.60;30.00
53776;DHT22;44276;49.534;6.378;2023-04-28T15:39:12;23.50;30.00
53776;DHT22;44276;49.534;6.378;2023-04-28T15:41:43;23.50;30.90
53776;DHT22;44276;49.534;6.378;2023-04-28T15:44:11;23.60;30.40
53776;DHT22;44276;49.534;6.378;2023-04-28T15:46:40;23.70;30.70
53776;DHT22;44276;49.534;6.378;2023-04-28T15:49:10;23.80;29.70
53776;DHT22;44276;49.534;6.378;2023-04-28T15:51:39;23.80;28.90